sensor_id;sensor_type;location;lat;lon;timestamp;P1;durP1;ratioP1;P2;durP2;ratioP2
22441;SDS011;11388;54.456;9.752;2022-09-09T00:06:31;16.65;;;14.77;;
22441;SDS011;11388;54.456;9.752;2022-09-09T00:09:21;17.13;;;14.48;;
22441;SDS011;11388;54.456;9.752;2022-09-09T00:11:58;24.15;;;18.58;;
22441;SDS011;11388;54.456;9.752;2022-09-09T00:17:29;20.60;;;17.15;;
22441;SDS011;11388;54.456;9.752;2022-09-09T00:20:03;19.05;;;17.05;;
22441;SDS011;11388;54.456;9.752;2022-09-09T00:22:37;16.15;;;14.35;;
22441;SDS011;11388;54.456;9.752;2022-09-09T00:25:12;21.23;;;18.58;;
22441;SDS011;11388;54.456;9.752;2022-09-09T00:27:47;17.67;;;15.75;;
22441;SDS011;11388;54.456;9.752;2022-09-09T00:30:18;16.05;;;14.45;;
22441;SDS011;11388;54.456;9.752;2022-09-09T00:32:49;18.30;;;16.33;;
22441;SDS011;11388;54.456;9.752;2022-09-09T00:35:24;19.48;;;16.98;;
22441;SDS011;11388;54.456;9.752;2022-09-09T00:38:01;20.67;;;17.52;;
22441;SDS011;11388;54.456;9.752;2022-09-09T00:40:49;17.70;;;15.80;;
22441;SDS011;11388;54.456;9.752;2022-09-09T00:43:26;26.48;;;21.85;;
22441;SDS011;11388;54.456;9.752;2022-09-09T00:55:00;22.50;;;20.10;;
22441;SDS011;11388;54.456;9.752;2022-09-09T00:57:44;23.35;;;20.80;;
22441;SDS011;11388;54.456;9.752;2022-09-09T01:07:58;29.48;;;22.95;;
22441;SDS011;11388;54.456;9.752;2022-09-09T01:13:31;32.45;;;24.40;;
22441;SDS011;11388;54.456;9.752;2022-09-09T01:16:00;20.00;;;18.00;;
22441;SDS011;11388;54.456;9.752;2022-09-09T01:18:30;19.83;;;17.80;;
22441;SDS011;11388;54.456;9.752;2022-09-09T01:24:17;22.42;;;20.02;;
22441;SDS011;11388;54.456;9.752;2022-09-09T01:26:36;24.73;;;19.05;;
22441;SDS011;11388;54.456;9.752;2022-09-09T01:29:07;22.60;;;19.92;;
22441;SDS011;11388;54.456;9.752;2022-09-09T01:31:37;27.10;;;21.30;;
22441;SDS011;11388;54.456;9.752;2022-09-09T01:34:12;23.77;;;20.73;;
22441;SDS011;11388;54.456;9.752;2022-09-09T01:39:16;20.13;;;17.95;;
22441;SDS011;11388;54.456;9.752;2022-09-09T01:41:41;22.50;;;18.92;;
22441;SDS011;11388;54.456;9.752;2022-09-09T01:44:07;19.90;;;17.80;;
22441;SDS011;11388;54.456;9.752;2022-09-09T01:46:34;30.13;;;23.25;;
22441;SDS011;11388;54.456;9.752;2022-09-09T01:49:00;20.40;;;18.23;;
22441;SDS011;11388;54.456;9.752;2022-09-09T01:51:28;27.55;;;21.77;;
22441;SDS011;11388;54.456;9.752;2022-09-09T01:53:54;20.27;;;17.40;;
22441;SDS011;11388;54.456;9.752;2022-09-09T02:02:30;25.42;;;21.23;;
22441;SDS011;11388;54.456;9.752;2022-09-09T02:05:07;21.83;;;18.77;;
22441;SDS011;11388;54.456;9.752;2022-09-09T02:13:14;20.20;;;17.40;;
22441;SDS011;11388;54.456;9.752;2022-09-09T02:18:23;26.13;;;20.33;;
22441;SDS011;11388;54.456;9.752;2022-09-09T02:20:52;19.23;;;17.13;;
22441;SDS011;11388;54.456;9.752;2022-09-09T02:23:19;20.40;;;17.60;;
22441;SDS011;11388;54.456;9.752;2022-09-09T02:25:45;27.70;;;21.38;;
22441;SDS011;11388;54.456;9.752;2022-09-09T02:28:13;21.05;;;18.65;;
22441;SDS011;11388;54.456;9.752;2022-09-09T02:30:41;23.60;;;19.98;;
22441;SDS011;11388;54.456;9.752;2022-09-09T02:33:09;24.33;;;19.33;;
22441;SDS011;11388;54.456;9.752;2022-09-09T02:35:37;22.60;;;18.40;;
22441;SDS011;11388;54.456;9.752;2022-09-09T02:38:05;19.92;;;16.10;;
22441;SDS011;11388;54.456;9.752;2022-09-09T02:43:56;26.30;;;20.55;;
22441;SDS011;11388;54.456;9.752;2022-09-09T02:49:40;28.15;;;21.25;;
22441;SDS011;11388;54.456;9.752;2022-09-09T02:52:45;32.83;;;23.02;;
22441;SDS011;11388;54.456;9.752;2022-09-09T02:55:27;22.17;;;18.58;;
22441;SDS011;11388;54.456;9.752;2022-09-09T02:58:01;25.45;;;19.75;;
22441;SDS011;11388;54.456;9.752;2022-09-09T03:00:31;21.08;;;16.80;;
22441;SDS011;11388;54.456;9.752;2022-09-09T03:02:57;27.92;;;20.35;;
22441;SDS011;11388;54.456;9.752;2022-09-09T03:05:23;27.50;;;21.30;;
22441;SDS011;11388;54.456;9.752;2022-09-09T03:07:49;26.95;;;19.80;;
22441;SDS011;11388;54.456;9.752;2022-09-09T03:10:15;32.90;;;22.73;;
22441;SDS011;11388;54.456;9.752;2022-09-09T03:12:42;23.17;;;18.02;;
22441;SDS011;11388;54.456;9.752;2022-09-09T03:15:08;20.55;;;17.45;;
22441;SDS011;11388;54.456;9.752;2022-09-09T03:17:34;29.63;;;21.45;;
22441;SDS011;11388;54.456;9.752;2022-09-09T03:20:01;28.92;;;20.15;;
22441;SDS011;11388;54.456;9.752;2022-09-09T03:22:28;26.73;;;19.38;;
22441;SDS011;11388;54.456;9.752;2022-09-09T03:24:53;27.30;;;19.13;;
22441;SDS011;11388;54.456;9.752;2022-09-09T03:27:19;36.05;;;23.73;;
22441;SDS011;11388;54.456;9.752;2022-09-09T03:29:45;31.25;;;22.90;;
22441;SDS011;11388;54.456;9.752;2022-09-09T03:32:11;34.90;;;24.20;;
22441;SDS011;11388;54.456;9.752;2022-09-09T03:34:37;28.40;;;21.52;;
22441;SDS011;11388;54.456;9.752;2022-09-09T03:37:07;28.13;;;20.35;;
22441;SDS011;11388;54.456;9.752;2022-09-09T03:39:33;28.67;;;20.48;;
22441;SDS011;11388;54.456;9.752;2022-09-09T03:41:58;34.63;;;23.65;;
22441;SDS011;11388;54.456;9.752;2022-09-09T03:44:24;36.25;;;23.65;;
22441;SDS011;11388;54.456;9.752;2022-09-09T03:46:49;39.63;;;24.38;;
22441;SDS011;11388;54.456;9.752;2022-09-09T03:49:15;34.03;;;23.83;;
22441;SDS011;11388;54.456;9.752;2022-09-09T03:51:41;25.20;;;19.35;;
22441;SDS011;11388;54.456;9.752;2022-09-09T03:54:07;33.22;;;23.00;;
22441;SDS011;11388;54.456;9.752;2022-09-09T03:56:35;27.67;;;21.23;;
22441;SDS011;11388;54.456;9.752;2022-09-09T03:59:01;24.60;;;18.48;;
22441;SDS011;11388;54.456;9.752;2022-09-09T04:01:28;33.88;;;21.67;;
22441;SDS011;11388;54.456;9.752;2022-09-09T04:03:54;26.85;;;20.70;;
22441;SDS011;11388;54.456;9.752;2022-09-09T04:06:23;27.10;;;20.35;;
22441;SDS011;11388;54.456;9.752;2022-09-09T04:08:49;30.02;;;21.80;;
22441;SDS011;11388;54.456;9.752;2022-09-09T04:11:17;27.20;;;20.10;;
22441;SDS011;11388;54.456;9.752;2022-09-09T04:13:43;29.70;;;21.15;;
22441;SDS011;11388;54.456;9.752;2022-09-09T04:16:09;32.00;;;22.42;;
22441;SDS011;11388;54.456;9.752;2022-09-09T04:18:38;26.15;;;19.52;;
22441;SDS011;11388;54.456;9.752;2022-09-09T04:21:04;29.75;;;20.38;;
22441;SDS011;11388;54.456;9.752;2022-09-09T04:23:31;30.40;;;20.85;;
22441;SDS011;11388;54.456;9.752;2022-09-09T04:25:59;30.10;;;21.90;;
22441;SDS011;11388;54.456;9.752;2022-09-09T04:28:27;26.85;;;20.38;;
22441;SDS011;11388;54.456;9.752;2022-09-09T04:30:54;28.85;;;21.00;;
22441;SDS011;11388;54.456;9.752;2022-09-09T04:33:23;25.58;;;20.08;;
22441;SDS011;11388;54.456;9.752;2022-09-09T04:35:51;19.02;;;16.17;;
22441;SDS011;11388;54.456;9.752;2022-09-09T04:38:18;20.48;;;16.70;;
22441;SDS011;11388;54.456;9.752;2022-09-09T04:40:48;22.40;;;17.45;;
22441;SDS011;11388;54.456;9.752;2022-09-09T04:43:15;24.65;;;18.63;;
22441;SDS011;11388;54.456;9.752;2022-09-09T04:45:41;24.80;;;19.88;;
22441;SDS011;11388;54.456;9.752;2022-09-09T04:48:07;22.08;;;17.95;;
22441;SDS011;11388;54.456;9.752;2022-09-09T04:50:34;23.50;;;18.38;;
22441;SDS011;11388;54.456;9.752;2022-09-09T04:53:01;19.20;;;17.15;;
22441;SDS011;11388;54.456;9.752;2022-09-09T04:55:29;21.08;;;17.45;;
22441;SDS011;11388;54.456;9.752;2022-09-09T04:57:55;22.75;;;18.23;;
22441;SDS011;11388;54.456;9.752;2022-09-09T05:00:22;28.00;;;20.13;;
22441;SDS011;11388;54.456;9.752;2022-09-09T05:02:48;26.25;;;19.55;;
22441;SDS011;11388;54.456;9.752;2022-09-09T05:05:14;22.02;;;17.25;;
22441;SDS011;11388;54.456;9.752;2022-09-09T05:07:40;25.38;;;19.75;;
22441;SDS011;11388;54.456;9.752;2022-09-09T05:10:06;25.42;;;19.52;;
22441;SDS011;11388;54.456;9.752;2022-09-09T05:12:32;34.45;;;22.55;;
22441;SDS011;11388;54.456;9.752;2022-09-09T05:14:58;24.38;;;18.23;;
22441;SDS011;11388;54.456;9.752;2022-09-09T05:17:24;23.17;;;18.80;;
22441;SDS011;11388;54.456;9.752;2022-09-09T05:19:49;29.33;;;20.50;;
22441;SDS011;11388;54.456;9.752;2022-09-09T05:22:21;19.42;;;17.10;;
22441;SDS011;11388;54.456;9.752;2022-09-09T05:24:48;22.83;;;18.15;;
22441;SDS011;11388;54.456;9.752;2022-09-09T05:27:16;23.02;;;17.15;;
22441;SDS011;11388;54.456;9.752;2022-09-09T05:29:44;23.80;;;18.38;;
22441;SDS011;11388;54.456;9.752;2022-09-09T05:32:11;19.67;;;16.58;;
22441;SDS011;11388;54.456;9.752;2022-09-09T05:34:38;17.50;;;15.57;;
22441;SDS011;11388;54.456;9.752;2022-09-09T05:37:04;19.35;;;16.30;;
22441;SDS011;11388;54.456;9.752;2022-09-09T05:39:29;23.77;;;18.17;;
22441;SDS011;11388;54.456;9.752;2022-09-09T05:44:55;23.42;;;18.08;;
22441;SDS011;11388;54.456;9.752;2022-09-09T05:47:21;23.10;;;17.48;;
22441;SDS011;11388;54.456;9.752;2022-09-09T05:49:47;24.42;;;19.33;;
22441;SDS011;11388;54.456;9.752;2022-09-09T05:52:13;22.08;;;17.08;;
22441;SDS011;11388;54.456;9.752;2022-09-09T05:54:38;22.45;;;17.15;;
22441;SDS011;11388;54.456;9.752;2022-09-09T05:57:05;18.40;;;15.63;;
22441;SDS011;11388;54.456;9.752;2022-09-09T05:59:30;24.15;;;18.95;;
22441;SDS011;11388;54.456;9.752;2022-09-09T06:05:19;22.63;;;17.58;;
22441;SDS011;11388;54.456;9.752;2022-09-09T06:07:45;22.75;;;17.98;;
22441;SDS011;11388;54.456;9.752;2022-09-09T06:10:11;23.27;;;18.30;;
22441;SDS011;11388;54.456;9.752;2022-09-09T06:12:39;30.67;;;20.80;;
22441;SDS011;11388;54.456;9.752;2022-09-09T06:15:05;31.13;;;22.13;;
22441;SDS011;11388;54.456;9.752;2022-09-09T06:17:31;33.47;;;21.67;;
22441;SDS011;11388;54.456;9.752;2022-09-09T06:19:56;31.90;;;19.38;;
22441;SDS011;11388;54.456;9.752;2022-09-09T06:22:22;30.67;;;20.83;;
22441;SDS011;11388;54.456;9.752;2022-09-09T06:24:48;24.67;;;17.85;;
22441;SDS011;11388;54.456;9.752;2022-09-09T06:27:13;33.13;;;21.80;;
22441;SDS011;11388;54.456;9.752;2022-09-09T06:29:39;36.60;;;23.38;;
22441;SDS011;11388;54.456;9.752;2022-09-09T06:32:06;38.03;;;24.27;;
22441;SDS011;11388;54.456;9.752;2022-09-09T06:34:33;36.90;;;23.17;;
22441;SDS011;11388;54.456;9.752;2022-09-09T06:37:00;39.08;;;24.05;;
22441;SDS011;11388;54.456;9.752;2022-09-09T06:39:26;32.85;;;22.45;;
22441;SDS011;11388;54.456;9.752;2022-09-09T06:41:52;36.47;;;22.40;;
22441;SDS011;11388;54.456;9.752;2022-09-09T06:44:18;32.10;;;22.40;;
22441;SDS011;11388;54.456;9.752;2022-09-09T06:46:44;30.15;;;20.77;;
22441;SDS011;11388;54.456;9.752;2022-09-09T06:49:12;37.72;;;22.80;;
22441;SDS011;11388;54.456;9.752;2022-09-09T06:51:38;31.77;;;21.27;;
22441;SDS011;11388;54.456;9.752;2022-09-09T06:54:11;30.58;;;19.85;;
22441;SDS011;11388;54.456;9.752;2022-09-09T06:56:38;31.88;;;21.27;;
22441;SDS011;11388;54.456;9.752;2022-09-09T06:59:07;29.75;;;20.25;;
22441;SDS011;11388;54.456;9.752;2022-09-09T07:01:40;28.33;;;20.20;;
22441;SDS011;11388;54.456;9.752;2022-09-09T07:04:08;31.17;;;20.80;;
22441;SDS011;11388;54.456;9.752;2022-09-09T07:06:43;23.77;;;18.73;;
22441;SDS011;11388;54.456;9.752;2022-09-09T07:09:12;25.80;;;18.73;;
22441;SDS011;11388;54.456;9.752;2022-09-09T07:11:44;26.42;;;19.73;;
22441;SDS011;11388;54.456;9.752;2022-09-09T07:14:11;31.45;;;20.60;;
22441;SDS011;11388;54.456;9.752;2022-09-09T07:16:39;25.48;;;19.42;;
22441;SDS011;11388;54.456;9.752;2022-09-09T07:19:09;24.45;;;18.58;;
22441;SDS011;11388;54.456;9.752;2022-09-09T07:21:36;26.15;;;19.17;;
22441;SDS011;11388;54.456;9.752;2022-09-09T07:24:02;23.58;;;18.90;;
22441;SDS011;11388;54.456;9.752;2022-09-09T07:26:30;24.70;;;19.20;;
22441;SDS011;11388;54.456;9.752;2022-09-09T07:28:56;26.13;;;19.35;;
22441;SDS011;11388;54.456;9.752;2022-09-09T07:31:28;24.80;;;19.73;;
22441;SDS011;11388;54.456;9.752;2022-09-09T07:33:59;23.50;;;18.40;;
22441;SDS011;11388;54.456;9.752;2022-09-09T07:36:27;25.65;;;19.10;;
22441;SDS011;11388;54.456;9.752;2022-09-09T07:39:04;24.25;;;18.63;;
22441;SDS011;11388;54.456;9.752;2022-09-09T07:41:35;26.88;;;19.25;;
22441;SDS011;11388;54.456;9.752;2022-09-09T07:44:04;23.48;;;17.65;;
22441;SDS011;11388;54.456;9.752;2022-09-09T07:46:31;25.48;;;19.90;;
22441;SDS011;11388;54.456;9.752;2022-09-09T07:49:13;25.90;;;18.33;;
22441;SDS011;11388;54.456;9.752;2022-09-09T07:51:44;19.67;;;16.70;;
22441;SDS011;11388;54.456;9.752;2022-09-09T07:54:22;20.52;;;17.05;;
22441;SDS011;11388;54.456;9.752;2022-09-09T07:56:58;24.02;;;17.67;;
22441;SDS011;11388;54.456;9.752;2022-09-09T07:59:27;20.50;;;17.40;;
22441;SDS011;11388;54.456;9.752;2022-09-09T08:01:54;18.77;;;16.52;;
22441;SDS011;11388;54.456;9.752;2022-09-09T08:04:24;21.13;;;17.45;;
22441;SDS011;11388;54.456;9.752;2022-09-09T08:06:52;18.33;;;16.08;;
22441;SDS011;11388;54.456;9.752;2022-09-09T08:09:22;22.60;;;18.77;;
22441;SDS011;11388;54.456;9.752;2022-09-09T08:11:54;20.27;;;16.98;;
22441;SDS011;11388;54.456;9.752;2022-09-09T08:14:22;18.77;;;16.83;;
22441;SDS011;11388;54.456;9.752;2022-09-09T08:16:49;19.38;;;17.02;;
22441;SDS011;11388;54.456;9.752;2022-09-09T08:19:15;24.77;;;20.10;;
22441;SDS011;11388;54.456;9.752;2022-09-09T08:21:41;21.83;;;19.30;;
22441;SDS011;11388;54.456;9.752;2022-09-09T08:24:09;23.98;;;20.13;;
22441;SDS011;11388;54.456;9.752;2022-09-09T08:26:39;26.92;;;19.98;;
22441;SDS011;11388;54.456;9.752;2022-09-09T08:29:07;27.15;;;20.63;;
22441;SDS011;11388;54.456;9.752;2022-09-09T08:31:39;19.10;;;17.17;;
22441;SDS011;11388;54.456;9.752;2022-09-09T08:34:07;19.90;;;17.67;;
22441;SDS011;11388;54.456;9.752;2022-09-09T08:36:40;23.60;;;20.85;;
22441;SDS011;11388;54.456;9.752;2022-09-09T08:39:08;19.67;;;17.67;;
22441;SDS011;11388;54.456;9.752;2022-09-09T08:52:37;18.23;;;16.38;;
22441;SDS011;11388;54.456;9.752;2022-09-09T08:57:52;18.67;;;15.27;;
22441;SDS011;11388;54.456;9.752;2022-09-09T09:00:20;20.60;;;17.17;;
22441;SDS011;11388;54.456;9.752;2022-09-09T09:05:52;18.13;;;15.68;;
22441;SDS011;11388;54.456;9.752;2022-09-09T09:08:44;17.08;;;13.45;;
22441;SDS011;11388;54.456;9.752;2022-09-09T09:14:15;14.25;;;12.75;;
22441;SDS011;11388;54.456;9.752;2022-09-09T09:19:24;18.45;;;14.18;;
22441;SDS011;11388;54.456;9.752;2022-09-09T09:25:16;15.70;;;12.77;;
22441;SDS011;11388;54.456;9.752;2022-09-09T09:28:03;13.80;;;12.30;;
22441;SDS011;11388;54.456;9.752;2022-09-09T09:30:55;17.05;;;13.98;;
22441;SDS011;11388;54.456;9.752;2022-09-09T09:36:11;17.55;;;13.40;;
22441;SDS011;11388;54.456;9.752;2022-09-09T09:38:40;14.00;;;12.38;;
22441;SDS011;11388;54.456;9.752;2022-09-09T09:41:43;16.40;;;12.93;;
22441;SDS011;11388;54.456;9.752;2022-09-09T09:47:15;13.60;;;11.98;;
22441;SDS011;11388;54.456;9.752;2022-09-09T09:49:58;13.23;;;11.55;;
22441;SDS011;11388;54.456;9.752;2022-09-09T09:52:27;13.68;;;10.57;;
22441;SDS011;11388;54.456;9.752;2022-09-09T09:54:55;13.52;;;12.13;;
22441;SDS011;11388;54.456;9.752;2022-09-09T09:57:27;13.02;;;11.73;;
22441;SDS011;11388;54.456;9.752;2022-09-09T10:02:39;11.98;;;10.00;;
22441;SDS011;11388;54.456;9.752;2022-09-09T10:05:15;13.02;;;10.75;;
22441;SDS011;11388;54.456;9.752;2022-09-09T10:07:43;11.13;;;10.02;;
22441;SDS011;11388;54.456;9.752;2022-09-09T10:10:33;12.15;;;10.95;;
22441;SDS011;11388;54.456;9.752;2022-09-09T10:32:30;11.65;;;10.55;;
22441;SDS011;11388;54.456;9.752;2022-09-09T10:35:27;11.60;;;10.52;;
22441;SDS011;11388;54.456;9.752;2022-09-09T10:41:19;11.05;;;9.85;;
22441;SDS011;11388;54.456;9.752;2022-09-09T10:55:17;9.52;;;8.63;;
22441;SDS011;11388;54.456;9.752;2022-09-09T10:57:45;8.88;;;7.95;;
22441;SDS011;11388;54.456;9.752;2022-09-09T11:00:21;10.40;;;8.73;;
22441;SDS011;11388;54.456;9.752;2022-09-09T11:03:02;9.73;;;8.82;;
22441;SDS011;11388;54.456;9.752;2022-09-09T11:08:48;9.07;;;7.40;;
22441;SDS011;11388;54.456;9.752;2022-09-09T11:16:28;7.00;;;6.30;;
22441;SDS011;11388;54.456;9.752;2022-09-09T11:19:16;8.68;;;6.55;;
22441;SDS011;11388;54.456;9.752;2022-09-09T11:25:26;6.50;;;5.40;;
22441;SDS011;11388;54.456;9.752;2022-09-09T11:30:57;4.68;;;3.70;;
22441;SDS011;11388;54.456;9.752;2022-09-09T11:33:37;4.97;;;3.60;;
22441;SDS011;11388;54.456;9.752;2022-09-09T11:39:09;4.80;;;3.30;;
22441;SDS011;11388;54.456;9.752;2022-09-09T11:41:48;4.15;;;2.95;;
22441;SDS011;11388;54.456;9.752;2022-09-09T11:44:18;4.95;;;3.00;;
22441;SDS011;11388;54.456;9.752;2022-09-09T11:46:51;3.88;;;3.00;;
22441;SDS011;11388;54.456;9.752;2022-09-09T11:49:27;3.92;;;2.90;;
22441;SDS011;11388;54.456;9.752;2022-09-09T11:52:41;4.05;;;2.72;;
22441;SDS011;11388;54.456;9.752;2022-09-09T11:55:11;3.58;;;2.40;;
22441;SDS011;11388;54.456;9.752;2022-09-09T11:57:46;4.63;;;1.98;;
22441;SDS011;11388;54.456;9.752;2022-09-09T12:03:34;4.68;;;1.70;;
22441;SDS011;11388;54.456;9.752;2022-09-09T12:08:58;3.33;;;1.60;;
22441;SDS011;11388;54.456;9.752;2022-09-09T12:11:43;3.15;;;1.60;;
22441;SDS011;11388;54.456;9.752;2022-09-09T12:14:19;3.15;;;1.60;;
22441;SDS011;11388;54.456;9.752;2022-09-09T12:19:47;2.63;;;1.52;;
22441;SDS011;11388;54.456;9.752;2022-09-09T12:36:38;2.15;;;0.90;;
22441;SDS011;11388;54.456;9.752;2022-09-09T12:39:14;2.25;;;0.80;;
22441;SDS011;11388;54.456;9.752;2022-09-09T12:41:53;1.58;;;0.70;;
22441;SDS011;11388;54.456;9.752;2022-09-09T12:44:23;2.28;;;0.77;;
22441;SDS011;11388;54.456;9.752;2022-09-09T12:46:50;3.55;;;0.88;;
22441;SDS011;11388;54.456;9.752;2022-09-09T12:49:31;1.73;;;0.73;;
22441;SDS011;11388;54.456;9.752;2022-09-09T12:54:57;1.73;;;0.50;;
22441;SDS011;11388;54.456;9.752;2022-09-09T12:57:25;2.80;;;0.80;;
22441;SDS011;11388;54.456;9.752;2022-09-09T13:00:15;2.67;;;0.60;;
22441;SDS011;11388;54.456;9.752;2022-09-09T13:02:53;2.95;;;0.50;;
22441;SDS011;11388;54.456;9.752;2022-09-09T13:05:25;2.00;;;0.70;;
22441;SDS011;11388;54.456;9.752;2022-09-09T13:07:59;2.13;;;0.60;;
22441;SDS011;11388;54.456;9.752;2022-09-09T13:10:31;2.35;;;0.55;;
22441;SDS011;11388;54.456;9.752;2022-09-09T13:13:03;1.42;;;0.60;;
22441;SDS011;11388;54.456;9.752;2022-09-09T13:15:36;2.22;;;0.77;;
22441;SDS011;11388;54.456;9.752;2022-09-09T13:18:03;3.10;;;0.68;;
22441;SDS011;11388;54.456;9.752;2022-09-09T13:20:36;2.97;;;0.80;;
22441;SDS011;11388;54.456;9.752;2022-09-09T13:23:02;3.47;;;0.70;;
22441;SDS011;11388;54.456;9.752;2022-09-09T13:25:30;3.50;;;0.80;;
22441;SDS011;11388;54.456;9.752;2022-09-09T13:30:31;2.47;;;0.65;;
22441;SDS011;11388;54.456;9.752;2022-09-09T13:35:29;2.30;;;0.90;;
22441;SDS011;11388;54.456;9.752;2022-09-09T13:37:56;1.48;;;0.70;;
22441;SDS011;11388;54.456;9.752;2022-09-09T13:40:23;2.55;;;0.70;;
22441;SDS011;11388;54.456;9.752;2022-09-09T13:42:52;1.33;;;0.60;;
22441;SDS011;11388;54.456;9.752;2022-09-09T13:45:21;2.42;;;0.70;;
22441;SDS011;11388;54.456;9.752;2022-09-09T13:47:51;2.80;;;0.60;;
22441;SDS011;11388;54.456;9.752;2022-09-09T13:50:24;2.42;;;0.60;;
22441;SDS011;11388;54.456;9.752;2022-09-09T13:52:52;2.92;;;0.63;;
22441;SDS011;11388;54.456;9.752;2022-09-09T13:55:23;1.42;;;0.50;;
22441;SDS011;11388;54.456;9.752;2022-09-09T13:58:01;1.48;;;0.60;;
22441;SDS011;11388;54.456;9.752;2022-09-09T14:00:29;2.08;;;0.47;;
22441;SDS011;11388;54.456;9.752;2022-09-09T14:02:56;2.90;;;0.90;;
22441;SDS011;11388;54.456;9.752;2022-09-09T14:05:22;3.45;;;0.75;;
22441;SDS011;11388;54.456;9.752;2022-09-09T14:07:58;1.75;;;0.63;;
22441;SDS011;11388;54.456;9.752;2022-09-09T14:10:25;2.22;;;0.52;;
22441;SDS011;11388;54.456;9.752;2022-09-09T14:12:53;4.80;;;1.00;;
22441;SDS011;11388;54.456;9.752;2022-09-09T14:15:25;2.85;;;0.60;;
22441;SDS011;11388;54.456;9.752;2022-09-09T14:17:54;2.92;;;0.85;;
22441;SDS011;11388;54.456;9.752;2022-09-09T14:20:19;2.85;;;0.60;;
22441;SDS011;11388;54.456;9.752;2022-09-09T14:22:47;2.72;;;0.70;;
22441;SDS011;11388;54.456;9.752;2022-09-09T14:25:21;2.92;;;0.80;;
22441;SDS011;11388;54.456;9.752;2022-09-09T14:27:56;2.40;;;0.52;;
22441;SDS011;11388;54.456;9.752;2022-09-09T14:30:22;1.55;;;0.47;;
22441;SDS011;11388;54.456;9.752;2022-09-09T14:32:48;1.85;;;0.60;;
22441;SDS011;11388;54.456;9.752;2022-09-09T14:35:13;3.75;;;0.68;;
22441;SDS011;11388;54.456;9.752;2022-09-09T14:37:39;1.55;;;0.52;;
22441;SDS011;11388;54.456;9.752;2022-09-09T14:40:05;2.60;;;0.60;;
22441;SDS011;11388;54.456;9.752;2022-09-09T14:42:32;2.78;;;0.70;;
22441;SDS011;11388;54.456;9.752;2022-09-09T14:44:57;3.45;;;0.77;;
22441;SDS011;11388;54.456;9.752;2022-09-09T14:47:23;2.17;;;0.50;;
22441;SDS011;11388;54.456;9.752;2022-09-09T14:49:49;4.72;;;0.70;;
22441;SDS011;11388;54.456;9.752;2022-09-09T14:52:15;2.35;;;0.60;;
22441;SDS011;11388;54.456;9.752;2022-09-09T14:54:41;1.80;;;0.60;;
22441;SDS011;11388;54.456;9.752;2022-09-09T14:57:07;1.73;;;0.50;;
22441;SDS011;11388;54.456;9.752;2022-09-09T14:59:32;1.88;;;0.50;;
22441;SDS011;11388;54.456;9.752;2022-09-09T15:02:01;2.40;;;0.50;;
22441;SDS011;11388;54.456;9.752;2022-09-09T15:04:29;1.02;;;0.38;;
22441;SDS011;11388;54.456;9.752;2022-09-09T15:06:54;2.38;;;0.60;;
22441;SDS011;11388;54.456;9.752;2022-09-09T15:09:20;2.60;;;0.40;;
22441;SDS011;11388;54.456;9.752;2022-09-09T15:11:46;1.77;;;0.60;;
22441;SDS011;11388;54.456;9.752;2022-09-09T15:14:12;2.20;;;0.55;;
22441;SDS011;11388;54.456;9.752;2022-09-09T15:16:37;2.65;;;1.00;;
22441;SDS011;11388;54.456;9.752;2022-09-09T15:19:04;2.97;;;0.80;;
22441;SDS011;11388;54.456;9.752;2022-09-09T15:21:31;2.83;;;1.58;;
22441;SDS011;11388;54.456;9.752;2022-09-09T15:23:58;3.10;;;1.42;;
22441;SDS011;11388;54.456;9.752;2022-09-09T15:26:25;2.53;;;1.35;;
22441;SDS011;11388;54.456;9.752;2022-09-09T15:28:52;5.95;;;1.80;;
22441;SDS011;11388;54.456;9.752;2022-09-09T15:31:21;2.63;;;1.95;;
22441;SDS011;11388;54.456;9.752;2022-09-09T15:33:52;4.03;;;1.85;;
22441;SDS011;11388;54.456;9.752;2022-09-09T15:36:25;4.00;;;2.03;;
22441;SDS011;11388;54.456;9.752;2022-09-09T15:38:53;3.25;;;2.25;;
22441;SDS011;11388;54.456;9.752;2022-09-09T15:41:20;5.50;;;2.55;;
22441;SDS011;11388;54.456;9.752;2022-09-09T15:43:48;2.75;;;0.50;;
22441;SDS011;11388;54.456;9.752;2022-09-09T15:46:24;3.13;;;0.50;;
22441;SDS011;11388;54.456;9.752;2022-09-09T15:48:53;0.90;;;0.30;;
22441;SDS011;11388;54.456;9.752;2022-09-09T15:51:22;3.85;;;0.40;;
22441;SDS011;11388;54.456;9.752;2022-09-09T15:53:48;7.32;;;0.80;;
22441;SDS011;11388;54.456;9.752;2022-09-09T15:56:19;8.52;;;0.90;;
22441;SDS011;11388;54.456;9.752;2022-09-09T15:58:45;7.47;;;1.10;;
22441;SDS011;11388;54.456;9.752;2022-09-09T16:01:13;5.25;;;0.50;;
22441;SDS011;11388;54.456;9.752;2022-09-09T16:03:40;3.33;;;0.40;;
22441;SDS011;11388;54.456;9.752;2022-09-09T16:06:12;1.27;;;0.20;;
22441;SDS011;11388;54.456;9.752;2022-09-09T16:08:40;1.10;;;0.28;;
22441;SDS011;11388;54.456;9.752;2022-09-09T16:11:09;1.52;;;0.40;;
22441;SDS011;11388;54.456;9.752;2022-09-09T16:13:39;2.20;;;0.38;;
22441;SDS011;11388;54.456;9.752;2022-09-09T16:16:06;1.70;;;0.32;;
22441;SDS011;11388;54.456;9.752;2022-09-09T16:18:36;1.90;;;0.40;;
22441;SDS011;11388;54.456;9.752;2022-09-09T16:21:04;1.52;;;0.40;;
22441;SDS011;11388;54.456;9.752;2022-09-09T16:23:31;2.33;;;0.57;;
22441;SDS011;11388;54.456;9.752;2022-09-09T16:25:57;4.10;;;0.50;;
22441;SDS011;11388;54.456;9.752;2022-09-09T16:28:23;5.40;;;0.75;;
22441;SDS011;11388;54.456;9.752;2022-09-09T16:30:49;2.90;;;0.60;;
22441;SDS011;11388;54.456;9.752;2022-09-09T16:33:18;1.58;;;0.40;;
22441;SDS011;11388;54.456;9.752;2022-09-09T16:35:44;2.13;;;0.50;;
22441;SDS011;11388;54.456;9.752;2022-09-09T16:38:10;2.38;;;0.40;;
22441;SDS011;11388;54.456;9.752;2022-09-09T16:40:39;3.08;;;0.50;;
22441;SDS011;11388;54.456;9.752;2022-09-09T16:49:20;1.38;;;0.30;;
22441;SDS011;11388;54.456;9.752;2022-09-09T16:51:47;3.30;;;0.40;;
22441;SDS011;11388;54.456;9.752;2022-09-09T16:54:14;1.60;;;0.40;;
22441;SDS011;11388;54.456;9.752;2022-09-09T16:56:42;1.60;;;0.30;;
22441;SDS011;11388;54.456;9.752;2022-09-09T16:59:13;2.25;;;0.40;;
22441;SDS011;11388;54.456;9.752;2022-09-09T17:01:44;1.55;;;0.30;;
22441;SDS011;11388;54.456;9.752;2022-09-09T17:04:24;0.98;;;0.40;;
22441;SDS011;11388;54.456;9.752;2022-09-09T17:07:01;3.13;;;0.40;;
22441;SDS011;11388;54.456;9.752;2022-09-09T17:15:42;2.10;;;0.50;;
22441;SDS011;11388;54.456;9.752;2022-09-09T17:18:33;1.80;;;0.50;;
22441;SDS011;11388;54.456;9.752;2022-09-09T17:21:02;1.95;;;0.40;;
22441;SDS011;11388;54.456;9.752;2022-09-09T17:23:33;2.85;;;0.73;;
22441;SDS011;11388;54.456;9.752;2022-09-09T17:26:02;1.90;;;0.50;;
22441;SDS011;11388;54.456;9.752;2022-09-09T17:28:35;1.85;;;0.40;;
22441;SDS011;11388;54.456;9.752;2022-09-09T17:31:05;1.00;;;0.40;;
22441;SDS011;11388;54.456;9.752;2022-09-09T17:33:37;1.65;;;0.40;;
22441;SDS011;11388;54.456;9.752;2022-09-09T17:39:02;1.02;;;0.40;;
22441;SDS011;11388;54.456;9.752;2022-09-09T17:41:42;1.25;;;0.32;;
22441;SDS011;11388;54.456;9.752;2022-09-09T17:44:11;1.17;;;0.32;;
22441;SDS011;11388;54.456;9.752;2022-09-09T17:46:38;0.77;;;0.28;;
22441;SDS011;11388;54.456;9.752;2022-09-09T17:49:09;1.02;;;0.32;;
22441;SDS011;11388;54.456;9.752;2022-09-09T17:51:46;1.60;;;0.40;;
22441;SDS011;11388;54.456;9.752;2022-09-09T17:54:19;2.38;;;0.47;;
22441;SDS011;11388;54.456;9.752;2022-09-09T17:56:45;1.08;;;0.50;;
22441;SDS011;11388;54.456;9.752;2022-09-09T17:59:13;1.67;;;0.45;;
22441;SDS011;11388;54.456;9.752;2022-09-09T18:01:43;1.38;;;0.43;;
22441;SDS011;11388;54.456;9.752;2022-09-09T18:04:14;1.35;;;0.50;;